Time;durP1;ratioP1;P1;durP2;ratioP2;P2;SDS_P1;SDS_P2;PMS_P1;PMS_P2;Temp;Humidity;BMP_temperature;BMP_pressure;BME280_temperature;BME280_humidity;BME280_pressure;Samples;Min_cycle;Max_cycle;Signal;HPM_P1;HPM_P2
2021/10/09 00:01:31;;;;;;;0.50;0.50;;;;;;;8.88;51.96;102390.14;111378;1193;94911;-75
2021/10/09 00:03:58;;;;;;;0.50;0.50;;;;;;;8.90;52.14;102388.05;111251;1193;137204;-76
2021/10/09 00:06:24;;;;;;;0.60;0.60;;;;;;;8.86;52.61;102385.17;111309;1193;94908;-76
2021/10/09 00:08:51;;;;;;;0.50;0.50;;;;;;;8.78;52.63;102387.20;111307;1193;137429;-75
2021/10/09 00:11:20;;;;;;;0.50;0.50;;;;;;;8.70;52.96;102381.60;111261;1197;94948;-75
2021/10/09 00:13:47;;;;;;;0.60;0.60;;;;;;;8.65;53.15;102383.13;111427;1193;96190;-76
2021/10/09 00:16:15;;;;;;;0.80;0.80;;;;;;;8.61;53.03;102384.32;111211;1193;137944;-76
2021/10/09 00:18:41;;;;;;;0.60;0.60;;;;;;;8.60;52.96;102385.71;111432;1193;95407;-76
2021/10/09 00:21:08;;;;;;;0.60;0.60;;;;;;;8.56;53.15;102386.02;111353;1197;137112;-77
2021/10/09 00:23:35;;;;;;;0.60;0.60;;;;;;;8.54;52.91;102384.05;111436;1193;94939;-76
2021/10/09 00:26:01;;;;;;;0.60;0.60;;;;;;;8.59;53.01;102381.09;111295;1197;96082;-76
2021/10/09 00:28:28;;;;;;;0.60;0.60;;;;;;;8.67;52.88;102387.22;111305;1193;138627;-76
2021/10/09 00:30:55;;;;;;;0.60;0.60;;;;;;;8.65;52.88;102386.67;111368;1193;110393;-76
2021/10/09 00:33:21;;;;;;;0.60;0.60;;;;;;;8.70;53.09;102386.73;111232;1196;137688;-76
2021/10/09 00:35:48;;;;;;;0.60;0.60;;;;;;;8.63;53.07;102385.23;111344;1195;94904;-76
2021/10/09 00:38:14;;;;;;;0.60;0.60;;;;;;;8.54;53.11;102385.98;111186;1196;95037;-76
2021/10/09 00:40:41;;;;;;;0.60;0.60;;;;;;;8.50;53.35;102385.92;111377;1193;136910;-76
2021/10/09 00:43:08;;;;;;;0.60;0.60;;;;;;;8.54;53.47;102386.15;111260;1195;109437;-76
2021/10/09 00:45:35;;;;;;;0.60;0.60;;;;;;;8.44;53.58;102383.16;111363;1193;137405;-76
2021/10/09 00:48:03;;;;;;;0.60;0.60;;;;;;;8.40;53.64;102381.69;111285;1201;95384;-75
2021/10/09 00:50:30;;;;;;;0.60;0.60;;;;;;;8.38;53.86;102380.77;111265;1194;138067;-76
2021/10/09 00:52:57;;;;;;;0.60;0.60;;;;;;;8.41;53.70;102383.28;111358;1196;94980;-76
2021/10/09 00:55:25;;;;;;;0.60;0.60;;;;;;;8.42;54.08;102381.54;111359;1193;95526;-76
2021/10/09 00:57:52;;;;;;;0.50;0.50;;;;;;;8.50;53.70;102382.92;111084;1195;137247;-76
2021/10/09 01:00:18;;;;;;;0.50;0.50;;;;;;;8.54;53.75;102384.57;111459;1193;95879;-76
2021/10/09 01:02:46;;;;;;;0.60;0.60;;;;;;;8.55;53.90;102384.94;111422;1193;137692;-76
2021/10/09 01:05:12;;;;;;;0.60;0.60;;;;;;;8.45;54.00;102384.25;111532;1197;95009;-76
2021/10/09 01:07:39;;;;;;;0.60;0.60;;;;;;;8.35;54.36;102385.67;111475;1195;94896;-76
2021/10/09 01:10:06;;;;;;;0.60;0.60;;;;;;;8.28;54.47;102382.03;111349;1195;137728;-76
2021/10/09 01:12:33;;;;;;;0.60;0.60;;;;;;;8.32;54.55;102385.63;111460;1193;94892;-76
2021/10/09 01:15:21;;;;;;;0.60;0.60;;;;;;;8.41;54.64;102383.46;111290;1195;137300;-77
2021/10/09 01:17:48;;;;;;;0.60;0.60;;;;;;;8.48;53.98;102385.89;111466;1193;94988;-77
2021/10/09 01:20:15;;;;;;;0.60;0.60;;;;;;;8.51;53.77;102384.35;111501;1195;95264;-76
2021/10/09 01:22:42;;;;;;;0.60;0.60;;;;;;;8.43;54.02;102383.50;111382;1193;137252;-76
2021/10/09 01:25:09;;;;;;;0.60;0.60;;;;;;;8.37;54.11;102387.66;111385;1193;95829;-77
2021/10/09 01:27:39;;;;;;;0.70;0.70;;;;;;;8.37;54.18;102385.90;111319;1193;138320;-77
2021/10/09 01:30:08;;;;;;;0.70;0.70;;;;;;;8.33;54.11;102384.40;111583;1195;95001;-77
2021/10/09 01:32:35;;;;;;;0.60;0.60;;;;;;;8.28;54.55;102382.92;111327;1193;137903;-77
2021/10/09 01:35:07;;;;;;;0.60;0.60;;;;;;;8.30;54.52;102381.73;111485;1194;95681;-76
2021/10/09 01:37:41;;;;;;;0.50;0.50;;;;;;;8.24;54.46;102377.89;111529;1193;96065;-75
2021/10/09 01:40:08;;;;;;;0.60;0.60;;;;;;;8.23;54.81;102376.81;111359;1193;137493;-77
2021/10/09 01:42:36;;;;;;;0.60;0.60;;;;;;;8.16;54.85;102379.36;111472;1193;95506;-76
2021/10/09 01:45:05;;;;;;;0.60;0.60;;;;;;;8.12;55.08;102382.33;111406;1194;137362;-76
2021/10/09 01:47:32;;;;;;;0.70;0.70;;;;;;;8.05;55.17;102382.92;111555;1193;95405;-76
2021/10/09 01:49:58;;;;;;;0.60;0.60;;;;;;;8.00;55.20;102381.77;111317;1193;97164;-76
2021/10/09 01:52:25;;;;;;;0.60;0.60;;;;;;;7.96;54.99;102381.02;111318;1195;137656;-76
2021/10/09 01:54:52;;;;;;;0.50;0.50;;;;;;;7.88;55.26;102382.98;111448;1193;94875;-76
2021/10/09 01:57:18;;;;;;;0.60;0.60;;;;;;;7.85;55.33;102380.29;111441;1193;137319;-75
2021/10/09 01:59:45;;;;;;;0.60;0.60;;;;;;;7.84;55.30;102377.97;111490;1193;94854;-76
2021/10/09 02:02:11;;;;;;;0.60;0.60;;;;;;;7.86;55.43;102374.11;111528;1196;95072;-76
2021/10/09 02:04:38;;;;;;;0.80;0.80;;;;;;;7.86;55.11;102376.59;111398;1193;136802;-75
2021/10/09 02:07:07;;;;;;;0.60;0.60;;;;;;;7.83;55.31;102379.73;111532;1195;95284;-76
2021/10/09 02:09:34;;;;;;;0.60;0.60;;;;;;;7.81;55.18;102378.80;111338;1194;137801;-76
2021/10/09 02:12:00;;;;;;;0.50;0.50;;;;;;;7.76;55.30;102378.18;111415;1195;95378;-76
2021/10/09 02:17:23;;;;;;;0.70;0.70;;;;;;;7.71;55.25;102378.63;111411;1193;95305;-76
2021/10/09 02:25:47;;;;;;;0.60;0.60;;;;;;;7.68;55.45;102379.48;110987;1195;108285;-76
2021/10/09 02:28:18;;;;;;;0.70;0.70;;;;;;;7.75;55.10;102377.98;111325;1194;137624;-76
2021/10/09 02:30:46;;;;;;;0.70;0.70;;;;;;;7.73;54.94;102375.12;111504;1195;95308;-76
2021/10/09 02:33:13;;;;;;;0.60;0.60;;;;;;;7.79;55.04;102375.75;111637;1193;137876;-76
2021/10/09 02:35:40;;;;;;;0.70;0.70;;;;;;;7.73;55.12;102376.89;111415;1194;96130;-75
2021/10/09 02:38:08;;;;;;;0.60;0.60;;;;;;;7.67;55.08;102377.85;111475;1193;95075;-77
2021/10/09 02:40:39;;;;;;;0.70;0.70;;;;;;;7.68;55.30;102378.40;111365;1194;137117;-77
2021/10/09 02:43:06;;;;;;;0.70;0.70;;;;;;;7.68;55.37;102382.11;111504;1193;95354;-75
2021/10/09 02:45:33;;;;;;;0.60;0.60;;;;;;;7.68;55.38;102379.98;111310;1194;139196;-76
2021/10/09 02:48:01;;;;;;;0.60;0.60;;;;;;;7.68;55.36;102381.75;111454;1193;95082;-75
2021/10/09 02:50:29;;;;;;;0.70;0.70;;;;;;;7.64;55.05;102379.92;111188;1194;137297;-76
2021/10/09 02:52:57;;;;;;;0.70;0.70;;;;;;;7.61;54.99;102379.33;111469;1193;95783;-76
2021/10/09 02:55:24;;;;;;;0.70;0.70;;;;;;;7.65;55.24;102379.77;111442;1193;108682;-76
2021/10/09 02:57:51;;;;;;;0.70;0.70;;;;;;;7.65;55.29;102382.06;111355;1193;137396;-76
2021/10/09 03:00:20;;;;;;;0.70;0.70;;;;;;;7.64;55.40;102382.05;111376;1193;95028;-77
2021/10/09 03:02:46;;;;;;;0.70;0.70;;;;;;;7.67;55.35;102382.10;111426;1193;138118;-75
2021/10/09 03:05:13;;;;;;;0.70;0.70;;;;;;;7.67;55.11;102381.92;111371;1195;95488;-75
2021/10/09 03:07:40;;;;;;;0.70;0.70;;;;;;;7.71;55.28;102375.62;111433;1195;95384;-76
2021/10/09 03:10:08;;;;;;;0.70;0.70;;;;;;;7.66;55.28;102370.24;111284;1195;138430;-75
2021/10/09 03:12:36;;;;;;;0.70;0.70;;;;;;;7.63;55.56;102369.65;111557;1193;95004;-75
2021/10/09 03:15:04;;;;;;;0.70;0.70;;;;;;;7.63;55.49;102367.00;111247;1194;137464;-76
2021/10/09 03:17:31;;;;;;;0.70;0.70;;;;;;;7.66;55.55;102368.46;111788;1193;109406;-76
2021/10/09 03:19:58;;;;;;;0.60;0.60;;;;;;;7.70;55.48;102374.72;111322;1195;95830;-76
2021/10/09 03:22:25;;;;;;;0.60;0.60;;;;;;;7.71;55.43;102371.20;111312;1193;138416;-77
2021/10/09 03:24:52;;;;;;;0.70;0.70;;;;;;;7.69;54.87;102372.94;111450;1193;95410;-75
2021/10/09 03:27:19;;;;;;;0.70;0.70;;;;;;;7.58;55.29;102369.58;111122;1195;138009;-76
2021/10/09 03:29:45;;;;;;;0.70;0.70;;;;;;;7.54;55.14;102371.59;111428;1195;94921;-76
2021/10/09 03:32:12;;;;;;;0.70;0.70;;;;;;;7.55;55.46;102372.34;111459;1195;94981;-76
2021/10/09 03:34:39;;;;;;;0.70;0.70;;;;;;;7.51;55.57;102375.45;111518;1193;136947;-76
2021/10/09 03:37:07;;;;;;;0.70;0.70;;;;;;;7.57;55.75;102371.49;111402;1193;95387;-76
2021/10/09 03:39:36;;;;;;;0.70;0.70;;;;;;;7.60;55.97;102372.23;111137;1195;138965;-76
2021/10/09 03:42:11;;;;;;;0.70;0.70;;;;;;;7.65;55.71;102371.63;111342;1197;95482;-76
2021/10/09 03:45:00;;;;;;;0.60;0.60;;;;;;;7.63;55.63;102370.36;111291;1195;137307;-75
2021/10/09 03:52:53;;;;;;;0.60;0.60;;;;;;;7.53;55.75;102373.54;111335;1193;137437;-76
2021/10/09 03:55:20;;;;;;;0.70;0.70;;;;;;;7.54;55.81;102374.79;111426;1195;95538;-76
2021/10/09 03:57:47;;;;;;;0.60;0.60;;;;;;;7.49;55.89;102375.95;111236;1194;138158;-76
2021/10/09 04:00:17;;;;;;;0.60;0.60;;;;;;;7.42;55.92;102375.80;111288;1195;94966;-76
2021/10/09 04:02:44;;;;;;;0.80;0.80;;;;;;;7.39;55.97;102378.41;111878;1193;137210;-76
2021/10/09 04:05:11;;;;;;;0.70;0.70;;;;;;;7.41;56.05;102371.91;111370;1194;95440;-76
2021/10/09 04:07:38;;;;;;;0.70;0.70;;;;;;;7.43;56.15;102373.17;111433;1193;95485;-75
2021/10/09 04:10:08;;;;;;;0.70;0.70;;;;;;;7.44;55.79;102373.91;111301;1193;137382;-75
2021/10/09 04:12:35;;;;;;;0.70;0.70;;;;;;;7.46;55.97;102377.30;111550;1194;95877;-76
2021/10/09 04:15:03;;;;;;;0.60;0.60;;;;;;;7.55;56.02;102376.41;111279;1194;137966;-76
2021/10/09 04:17:30;;;;;;;0.70;0.70;;;;;;;7.57;55.63;102375.39;111488;1193;95390;-76
2021/10/09 04:19:56;;;;;;;0.70;0.70;;;;;;;7.55;55.70;102374.46;111502;1193;94946;-76
2021/10/09 04:22:23;;;;;;;0.70;0.70;;;;;;;7.53;55.65;102374.77;111253;1194;136973;-75
2021/10/09 04:24:49;;;;;;;0.70;0.70;;;;;;;7.57;55.73;102377.15;111439;1193;95351;-76
2021/10/09 04:27:16;;;;;;;0.60;0.60;;;;;;;7.59;55.85;102376.83;111290;1195;137685;-76
2021/10/09 04:29:43;;;;;;;0.60;0.60;;;;;;;7.49;56.00;102375.23;111394;1193;107448;-76
2021/10/09 04:32:09;;;;;;;0.70;0.70;;;;;;;7.44;55.81;102376.73;111478;1194;95002;-76
2021/10/09 04:34:36;;;;;;;0.70;0.70;;;;;;;7.42;55.95;102373.16;111302;1195;137599;-76
2021/10/09 04:37:03;;;;;;;0.70;0.70;;;;;;;7.44;56.24;102378.16;111351;1193;95009;-76
2021/10/09 04:39:30;;;;;;;0.70;0.70;;;;;;;7.51;55.91;102375.45;111270;1195;137896;-76
2021/10/09 04:41:56;;;;;;;0.70;0.70;;;;;;;7.56;55.68;102378.17;111357;1195;95180;-76
2021/10/09 04:44:23;;;;;;;0.60;0.60;;;;;;;7.54;55.88;102373.91;111119;1193;109174;-76
2021/10/09 04:46:50;;;;;;;0.70;0.70;;;;;;;7.47;55.69;102376.95;111317;1194;136720;-76
2021/10/09 04:49:16;;;;;;;0.70;0.70;;;;;;;7.46;56.01;102377.84;111496;1195;95039;-76
2021/10/09 04:51:43;;;;;;;0.70;0.70;;;;;;;7.50;55.78;102378.61;111312;1193;138104;-76
2021/10/09 04:54:10;;;;;;;0.60;0.60;;;;;;;7.55;55.76;102384.02;111483;1193;95474;-76
2021/10/09 04:56:36;;;;;;;0.60;0.60;;;;;;;7.55;55.73;102384.89;111181;1195;138198;-76
2021/10/09 04:59:03;;;;;;;0.60;0.60;;;;;;;7.52;55.90;102383.77;111511;1195;94919;-77
2021/10/09 05:01:30;;;;;;;0.70;0.70;;;;;;;7.51;56.08;102385.52;111449;1194;94964;-77
2021/10/09 05:03:57;;;;;;;0.70;0.70;;;;;;;7.42;56.10;102388.35;111132;1197;137525;-77
2021/10/09 05:06:23;;;;;;;0.70;0.70;;;;;;;7.33;56.44;102387.12;111430;1193;95137;-76
2021/10/09 05:08:50;;;;;;;0.70;0.70;;;;;;;7.36;56.36;102384.34;111282;1195;139420;-77
2021/10/09 05:11:18;;;;;;;0.70;0.70;;;;;;;7.38;56.31;102378.73;111343;1195;94887;-76
2021/10/09 05:13:45;;;;;;;0.70;0.70;;;;;;;7.36;56.07;102377.30;111547;1193;94979;-76
2021/10/09 05:16:12;;;;;;;0.70;0.70;;;;;;;7.38;56.44;102373.79;111211;1195;136971;-76
2021/10/09 05:18:38;;;;;;;0.70;0.70;;;;;;;7.32;56.29;102382.16;111349;1195;96505;-75
2021/10/09 05:21:07;;;;;;;0.70;0.70;;;;;;;7.31;56.33;102381.80;111421;1195;138219;-76
2021/10/09 05:23:34;;;;;;;0.70;0.70;;;;;;;7.39;56.28;102383.52;111473;1195;95296;-75
2021/10/09 05:26:01;;;;;;;0.70;0.70;;;;;;;7.44;56.22;102383.80;111191;1193;94999;-76
2021/10/09 05:28:50;;;;;;;0.60;0.60;;;;;;;7.49;56.19;102382.66;111458;1193;138912;-78
2021/10/09 05:31:26;;;;;;;0.70;0.70;;;;;;;7.51;56.11;102383.59;111571;1193;95304;-77
2021/10/09 05:33:53;;;;;;;0.70;0.70;;;;;;;7.42;56.54;102389.42;111152;1193;137263;-76
2021/10/09 05:36:21;;;;;;;0.60;0.60;;;;;;;7.30;56.73;102390.94;111125;1196;95192;-76
2021/10/09 05:38:49;;;;;;;0.80;0.80;;;;;;;7.32;56.88;102390.65;111287;1193;138861;-76
2021/10/09 05:41:16;;;;;;;0.70;0.70;;;;;;;7.40;56.65;102391.52;111446;1193;95385;-76
2021/10/09 05:43:45;;;;;;;0.70;0.70;;;;;;;7.48;56.60;102388.65;111392;1194;94993;-76
2021/10/09 05:46:12;;;;;;;0.70;0.70;;;;;;;7.38;56.30;102388.64;111295;1193;137159;-76
2021/10/09 05:48:40;;;;;;;0.80;0.80;;;;;;;7.29;56.71;102393.76;111397;1194;109491;-76
2021/10/09 07:01:01;;;;;;;0.60;0.60;;;;;;;8.55;54.49;102422.48;111600;1193;109133;-76
2021/10/09 07:03:28;;;;;;;0.60;0.60;;;;;;;8.66;53.52;102418.19;111617;1194;138316;-76
2021/10/09 07:05:55;;;;;;;0.60;0.60;;;;;;;8.72;53.40;102425.38;111902;1193;94970;-77
2021/10/09 07:08:22;;;;;;;0.60;0.60;;;;;;;8.72;53.12;102431.90;111882;1194;94940;-77
2021/10/09 07:10:50;;;;;;;0.70;0.70;;;;;;;8.75;53.13;102439.40;111762;1195;137170;-77
2021/10/09 07:13:17;;;;;;;0.60;0.60;;;;;;;8.72;52.76;102440.77;111795;1194;95412;-77
2021/10/09 07:15:46;;;;;;;0.60;0.60;;;;;;;8.82;53.03;102441.62;111892;1194;137689;-76
2021/10/09 07:18:13;;;;;;;0.60;0.60;;;;;;;8.94;52.96;102443.38;111871;1193;95053;-77
2021/10/09 07:20:42;;;;;;;0.60;0.60;;;;;;;9.07;52.79;102445.50;111668;1193;137584;-76
2021/10/09 07:23:11;;;;;;;0.60;0.60;;;;;;;9.13;51.95;102452.30;112214;1193;109507;-78
2021/10/09 07:25:39;;;;;;;0.60;0.60;;;;;;;9.30;51.61;102449.33;111993;1193;97272;-78
2021/10/09 07:28:10;;;;;;;0.60;0.60;;;;;;;9.45;51.45;102448.61;111865;1193;137835;-77
2021/10/09 07:30:41;;;;;;;0.60;0.60;;;;;;;9.45;50.60;102448.63;111898;1194;108615;-77
2021/10/09 07:33:09;;;;;;;0.60;0.60;;;;;;;9.44;50.19;102452.16;111826;1193;137960;-77
2021/10/09 07:35:35;;;;;;;0.50;0.50;;;;;;;9.47;50.57;102454.31;111869;1194;94858;-78
2021/10/09 07:38:02;;;;;;;0.60;0.60;;;;;;;9.50;50.29;102456.84;111801;1193;95212;-77
2021/10/09 07:40:30;;;;;;;0.50;0.50;;;;;;;9.56;50.16;102459.20;111445;1195;137205;-77
2021/10/09 07:42:56;;;;;;;0.50;0.50;;;;;;;9.60;49.60;102458.00;111558;1193;95157;-78
2021/10/09 07:45:23;;;;;;;0.50;0.50;;;;;;;9.67;49.45;102459.86;111475;1193;137810;-77
2021/10/09 07:47:50;;;;;;;0.50;0.50;;;;;;;9.85;49.83;102456.84;111588;1195;95438;-77
2021/10/09 07:50:16;;;;;;;0.50;0.50;;;;;;;10.02;49.71;102458.59;111496;1193;94896;-77
2021/10/09 07:52:43;;;;;;;0.50;0.50;;;;;;;10.12;49.23;102459.23;111411;1195;138172;-77
2021/10/09 07:55:10;;;;;;;0.50;0.50;;;;;;;10.16;47.72;102458.72;111588;1195;94834;-78
2021/10/09 07:57:37;;;;;;;0.50;0.50;;;;;;;10.15;48.26;102458.01;111593;1193;138143;-78
2021/10/09 08:00:04;;;;;;;0.50;0.50;;;;;;;10.22;48.20;102464.98;111664;1195;95089;-78
2021/10/09 08:02:32;;;;;;;0.50;0.50;;;;;;;10.33;48.06;102466.15;111610;1194;94993;-78
2021/10/09 08:04:59;;;;;;;0.50;0.50;;;;;;;10.46;48.40;102463.44;111502;1195;137904;-79
2021/10/09 08:07:29;;;;;;;0.40;0.40;;;;;;;10.59;48.25;102466.19;111450;1195;95054;-77
2021/10/09 08:09:57;;;;;;;0.50;0.50;;;;;;;10.71;47.86;102467.16;111110;1195;137689;-77
2021/10/09 08:12:23;;;;;;;0.50;0.40;;;;;;;10.81;47.59;102466.52;111365;1195;108592;-77
2021/10/09 08:14:50;;;;;;;0.40;0.40;;;;;;;10.92;47.80;102466.58;111294;1195;138104;-76
2021/10/09 08:17:17;;;;;;;0.50;0.40;;;;;;;11.02;47.65;102461.83;111578;1193;95187;-77
2021/10/09 08:19:43;;;;;;;0.40;0.40;;;;;;;11.17;46.82;102462.61;111627;1195;94975;-77
2021/10/09 08:22:11;;;;;;;0.40;0.30;;;;;;;11.24;45.00;102458.02;111455;1195;138316;-77
2021/10/09 08:24:47;;;;;;;0.40;0.30;;;;;;;11.26;45.69;102458.73;111571;1193;107840;-77
2021/10/09 08:27:26;;;;;;;0.50;0.50;;;;;;;11.33;45.23;102459.84;111368;1194;138414;-77
2021/10/09 08:35:35;;;;;;;0.50;0.40;;;;;;;11.58;44.41;102452.27;111533;1193;108903;-77
2021/10/09 08:40:47;;;;;;;0.40;0.30;;;;;;;11.83;43.61;102448.21;111465;1193;138031;-77
2021/10/09 08:43:14;;;;;;;0.40;0.30;;;;;;;11.98;43.85;102448.61;111490;1195;94887;-77
2021/10/09 08:45:41;;;;;;;0.40;0.30;;;;;;;12.17;43.95;102449.52;111597;1193;138269;-76
2021/10/09 08:48:08;;;;;;;0.40;0.30;;;;;;;12.31;42.36;102447.92;111546;1193;95392;-77
2021/10/09 08:50:34;;;;;;;0.40;0.30;;;;;;;12.56;40.28;102445.40;111502;1193;96125;-77
2021/10/09 08:53:09;;;;;;;0.40;0.30;;;;;;;12.96;39.93;102443.34;111498;1195;137410;-77
2021/10/09 08:55:38;;;;;;;0.40;0.30;;;;;;;13.29;40.26;102440.00;111890;1193;94955;-77
2021/10/09 08:58:11;;;;;;;0.40;0.30;;;;;;;13.52;39.68;102440.44;114004;1193;138747;-77
2021/10/09 09:01:35;;;;;;;0.40;0.20;;;;;;;13.51;39.85;102437.77;111626;1193;109380;-76
2021/10/09 09:39:44;;;;;;;0.40;0.10;;;;;;;22.34;25.38;102412.83;111741;1193;137715;-77
2021/10/09 09:42:22;;;;;;;0.40;0.10;;;;;;;23.22;25.84;102413.39;112246;1193;109511;-78
2021/10/09 09:44:55;;;;;;;0.40;0.10;;;;;;;25.04;24.71;102409.94;111884;1194;137666;-77
2021/10/09 09:47:36;;;;;;;0.40;0.00;;;;;;;26.22;22.30;102409.92;112144;1193;94513;-78
2021/10/09 09:50:05;;;;;;;0.40;0.00;;;;;;;26.94;19.88;102412.96;111720;1193;94860;-77
2021/10/09 09:52:36;;;;;;;0.40;0.00;;;;;;;27.19;18.74;102411.02;114164;1194;137643;-78
2021/10/09 09:55:05;;;;;;;0.40;0.00;;;;;;;27.78;19.19;102409.13;112276;1193;110322;-77
2021/10/09 09:57:34;;;;;;;0.40;0.00;;;;;;;28.85;18.39;102399.02;111889;1193;138965;-78
2021/10/09 10:00:03;;;;;;;0.40;0.00;;;;;;;29.41;17.19;102397.95;112336;1194;94951;-79
2021/10/09 10:02:30;;;;;;;0.40;0.00;;;;;;;29.68;16.43;102395.68;112431;1195;100583;-77
2021/10/09 10:05:01;;;;;;;0.40;0.00;;;;;;;29.79;16.37;102393.39;112215;1195;138412;-78
2021/10/09 10:07:28;;;;;;;0.40;0.00;;;;;;;30.35;16.65;102391.66;112273;1193;96049;-78
2021/10/09 10:09:55;;;;;;;0.40;0.00;;;;;;;30.82;16.50;102391.42;111969;1195;137703;-78
2021/10/09 10:12:23;;;;;;;0.40;0.00;;;;;;;31.25;15.79;102387.94;112338;1193;95313;-77
2021/10/09 10:14:50;;;;;;;0.40;0.00;;;;;;;31.61;14.91;102385.11;111803;1194;137971;-79
2021/10/09 10:17:46;;;;;;;0.40;0.00;;;;;;;31.65;14.64;102382.56;111823;1195;94956;-78
2021/10/09 10:20:20;;;;;;;0.40;0.00;;;;;;;31.63;14.19;102379.06;112525;1193;95017;-77
2021/10/09 10:22:49;;;;;;;0.40;0.00;;;;;;;30.67;14.17;102382.98;111842;1195;137381;-78
2021/10/09 10:25:31;;;;;;;0.40;0.00;;;;;;;28.06;16.50;102390.40;111998;1194;108538;-78
2021/10/09 10:28:07;;;;;;;0.40;0.00;;;;;;;26.63;18.17;102392.84;111786;1195;137516;-77
2021/10/09 10:30:34;;;;;;;0.40;0.00;;;;;;;26.32;17.85;102385.26;112080;1194;94908;-76
2021/10/09 10:33:01;;;;;;;0.40;0.00;;;;;;;24.69;19.68;102390.38;111822;1193;136853;-79
2021/10/09 10:35:30;;;;;;;0.40;0.00;;;;;;;23.06;20.93;102392.92;111991;1193;94945;-78
2021/10/09 10:38:09;;;;;;;0.40;0.00;;;;;;;21.86;22.00;102390.20;112038;1193;94864;-79
2021/10/09 10:40:58;;;;;;;0.40;0.00;;;;;;;20.86;23.71;102384.95;112595;1193;137525;-79
2021/10/09 10:57:04;;;;;;;0.40;0.10;;;;;;;17.51;28.88;102381.93;111809;1195;110641;-79
2021/10/09 10:59:32;;;;;;;0.40;0.10;;;;;;;17.12;29.10;102382.98;112093;1193;95437;-79
2021/10/09 11:02:20;;;;;;;0.40;0.10;;;;;;;16.91;29.61;102378.59;112106;1194;95322;-79
2021/10/09 11:05:00;;;;;;;0.40;0.10;;;;;;;16.59;29.99;102379.38;111989;1194;137789;-82
2021/10/09 11:07:32;;;;;;;0.40;0.10;;;;;;;16.38;29.96;102377.10;112954;1194;109181;-80
2021/10/09 11:10:06;;;;;;;0.40;0.10;;;;;;;16.11;30.75;102372.76;112017;1194;136632;-78
2021/10/09 11:12:43;;;;;;;0.40;0.20;;;;;;;15.98;31.05;102370.11;112162;1193;94918;-77
2021/10/09 11:15:25;;;;;;;0.40;0.10;;;;;;;15.76;31.22;102367.57;112154;1194;107628;-78
2021/10/09 11:17:54;;;;;;;0.40;0.10;;;;;;;15.67;32.14;102368.41;114874;1193;137421;-80
2021/10/09 11:20:29;;;;;;;0.40;0.20;;;;;;;15.57;32.01;102370.55;115003;1193;93178;-80
2021/10/09 11:23:00;;;;;;;0.40;0.20;;;;;;;15.44;32.41;102365.73;114904;1193;137541;-79
2021/10/09 11:25:30;;;;;;;0.40;0.20;;;;;;;15.50;33.04;102363.15;113870;1193;108565;-79
2021/10/09 11:28:02;;;;;;;0.40;0.20;;;;;;;15.50;32.84;102366.73;113245;1193;136809;-78
2021/10/09 11:30:31;;;;;;;0.40;0.10;;;;;;;15.46;32.75;102361.78;111997;1193;95489;-78
2021/10/09 11:32:58;;;;;;;0.40;0.20;;;;;;;15.45;32.63;102363.39;112086;1193;95612;-78
2021/10/09 11:35:40;;;;;;;0.40;0.20;;;;;;;15.26;32.48;102358.49;111932;1194;138091;-79
2021/10/09 11:38:28;;;;;;;0.40;0.20;;;;;;;15.12;32.62;102356.36;112324;1193;109159;-79
2021/10/09 11:40:58;;;;;;;0.40;0.20;;;;;;;15.16;34.12;102356.48;113224;1193;138200;-79
2021/10/09 11:46:12;;;;;;;0.40;0.20;;;;;;;15.14;33.60;102352.76;112212;1193;138206;-80
2021/10/09 11:56:45;;;;;;;0.40;0.20;;;;;;;15.04;33.85;102340.18;111832;1195;108561;-78
2021/10/09 11:59:13;;;;;;;0.40;0.20;;;;;;;14.88;33.80;102343.80;111911;1194;138495;-79
2021/10/09 12:01:47;;;;;;;0.40;0.20;;;;;;;14.81;34.07;102342.45;114917;1193;93203;-80
2021/10/09 12:04:21;;;;;;;0.40;0.20;;;;;;;14.83;34.78;102342.08;114814;1193;138021;-79
2021/10/09 12:06:54;;;;;;;0.40;0.20;;;;;;;14.86;34.83;102336.66;114819;1194;108809;-79
2021/10/09 12:09:38;;;;;;;0.40;0.20;;;;;;;14.89;34.93;102331.27;114874;1193;109167;-80
2021/10/09 12:12:12;;;;;;;0.40;0.20;;;;;;;14.94;34.88;102331.92;113513;1193;137475;-79
2021/10/09 12:14:39;;;;;;;0.40;0.20;;;;;;;14.92;34.72;102332.30;112552;1195;94900;-79
2021/10/09 12:17:05;;;;;;;0.40;0.20;;;;;;;14.87;34.96;102332.02;111938;1193;137269;-79
2021/10/09 12:19:32;;;;;;;0.40;0.20;;;;;;;14.90;34.92;102330.72;111892;1194;95486;-79
2021/10/09 12:22:02;;;;;;;0.40;0.20;;;;;;;14.90;34.38;102324.46;111979;1193;138340;-80
2021/10/09 12:24:35;;;;;;;0.40;0.20;;;;;;;14.90;34.29;102323.21;111902;1194;95341;-78
2021/10/09 12:27:15;;;;;;;0.40;0.20;;;;;;;14.84;34.21;102320.79;112033;1193;108836;-78
2021/10/09 12:30:16;;;;;;;0.40;0.20;;;;;;;14.84;35.73;102317.90;111889;1193;137929;-80
2021/10/09 12:32:48;;;;;;;0.40;0.20;;;;;;;14.87;35.43;102313.77;111973;1193;94871;-79
2021/10/09 12:35:28;;;;;;;0.40;0.20;;;;;;;14.88;35.23;102316.09;111897;1193;138591;-78
2021/10/09 12:38:03;;;;;;;0.40;0.20;;;;;;;14.76;34.47;102313.20;112674;1193;107469;-79
2021/10/09 12:40:48;;;;;;;0.40;0.20;;;;;;;14.78;35.47;102312.27;111874;1196;138545;-79
2021/10/09 12:43:19;;;;;;;0.40;0.20;;;;;;;14.77;35.06;102310.67;112012;1193;95405;-81
2021/10/09 12:45:46;;;;;;;0.40;0.20;;;;;;;14.76;35.78;102305.51;114885;1193;93251;-84
2021/10/09 12:48:14;;;;;;;0.40;0.20;;;;;;;14.80;35.59;102307.61;114763;1193;137446;-84
2021/10/09 12:50:43;;;;;;;0.40;0.20;;;;;;;14.83;36.05;102311.48;113410;1194;94930;-82
2021/10/09 12:53:10;;;;;;;0.40;0.20;;;;;;;14.84;35.69;102303.27;112558;1194;139207;-83
2021/10/09 12:55:39;;;;;;;0.40;0.20;;;;;;;14.84;35.86;102303.62;112631;1193;95233;-82
2021/10/09 12:58:08;;;;;;;0.40;0.20;;;;;;;14.85;36.64;102300.02;112421;1193;138209;-82
2021/10/09 13:00:38;;;;;;;0.40;0.20;;;;;;;14.84;35.71;102300.39;112756;1193;108412;-84
2021/10/09 13:03:05;;;;;;;0.40;0.20;;;;;;;14.79;36.01;102301.72;112825;1193;96043;-83
2021/10/09 13:05:32;;;;;;;0.40;0.20;;;;;;;14.79;35.90;102297.60;112471;1195;139134;-82
2021/10/09 13:08:00;;;;;;;0.40;0.20;;;;;;;14.82;35.98;102294.34;112689;1193;95429;-82
2021/10/09 13:10:33;;;;;;;0.40;0.20;;;;;;;14.81;36.15;102292.92;113961;1193;137565;-84
2021/10/09 13:12:59;;;;;;;0.40;0.20;;;;;;;14.80;35.33;102291.87;112597;1193;94959;-83
2021/10/09 13:15:26;;;;;;;0.40;0.20;;;;;;;14.77;35.84;102287.26;112717;1193;95307;-83
2021/10/09 13:17:53;;;;;;;0.40;0.20;;;;;;;14.71;35.87;102291.62;112633;1193;139006;-83
2021/10/09 13:20:19;;;;;;;0.40;0.20;;;;;;;14.72;36.42;102287.50;112541;1193;94924;-81
2021/10/09 13:22:46;;;;;;;0.40;0.20;;;;;;;14.71;36.15;102283.05;112612;1193;138007;-84
2021/10/09 13:25:33;;;;;;;0.40;0.20;;;;;;;14.70;36.40;102284.67;112644;1193;95316;-81
2021/10/09 13:28:00;;;;;;;0.40;0.20;;;;;;;14.81;36.16;102275.40;112697;1193;138620;-81
2021/10/09 13:30:27;;;;;;;0.40;0.20;;;;;;;14.93;36.28;102275.41;112918;1194;95284;-81
2021/10/09 13:32:54;;;;;;;0.40;0.20;;;;;;;14.93;36.24;102273.27;112843;1193;94870;-83
2021/10/09 13:35:22;;;;;;;0.40;0.20;;;;;;;14.81;35.67;102268.97;112829;1193;138329;-83
2021/10/09 13:37:50;;;;;;;0.40;0.20;;;;;;;14.71;36.30;102270.70;112969;1193;95013;-81
2021/10/09 13:40:17;;;;;;;0.40;0.20;;;;;;;14.70;36.16;102269.10;112801;1193;137678;-83
2021/10/09 13:42:44;;;;;;;0.40;0.20;;;;;;;14.74;36.53;102264.59;112793;1195;95352;-81
2021/10/09 13:45:11;;;;;;;0.40;0.20;;;;;;;14.68;36.06;102258.41;112615;1196;94893;-83
2021/10/09 13:47:37;;;;;;;0.40;0.20;;;;;;;14.62;36.06;102260.25;112618;1193;137959;-83
2021/10/09 13:50:04;;;;;;;0.40;0.20;;;;;;;14.60;36.43;102260.44;112803;1193;95363;-84
2021/10/09 13:52:31;;;;;;;0.40;0.20;;;;;;;14.56;36.12;102258.17;113125;1193;137272;-81
2021/10/09 13:54:58;;;;;;;0.40;0.20;;;;;;;14.52;36.21;102256.95;112917;1193;109602;-83
2021/10/09 13:57:24;;;;;;;0.40;0.20;;;;;;;14.51;36.64;102255.91;112946;1193;94934;-83
2021/10/09 13:59:51;;;;;;;0.40;0.20;;;;;;;14.48;36.76;102254.16;113012;1193;137719;-83